createdAt,value
2023-02-28T00:47:22.450Z,3.10
2023-02-28T00:50:09.553Z,3.23
2023-02-28T00:52:55.600Z,3.13
2023-02-28T00:55:40.885Z,3.20
2023-02-28T00:58:26.428Z,3.33
2023-02-28T01:47:09.641Z,2.97
2023-02-28T01:49:55.188Z,3.30
2023-02-28T01:52:41.799Z,3.07
2023-02-28T01:55:29.706Z,3.05
2023-02-28T01:58:17.059Z,2.90
2023-02-28T02:47:05.753Z,2.70
2023-02-28T02:49:55.243Z,2.80
2023-02-28T02:52:45.533Z,2.55
2023-02-28T02:55:38.076Z,2.60
2023-02-28T02:58:29.574Z,2.78
2023-02-28T03:45:38.590Z,2.10
2023-02-28T03:48:36.212Z,2.35
2023-02-28T03:51:25.495Z,2.50
2023-02-28T03:54:17.497Z,2.30
2023-02-28T03:57:17.023Z,2.20
2023-02-28T04:00:11.678Z,2.28
2023-02-28T04:45:39.660Z,2.30
2023-02-28T04:48:29.935Z,1.98
2023-02-28T04:51:17.803Z,2.15
2023-02-28T04:54:03.212Z,1.92
2023-02-28T04:56:50.799Z,2.35
2023-02-28T04:59:35.969Z,2.30
2023-02-28T05:48:04.376Z,2.17
2023-02-28T05:50:49.914Z,2.28
2023-02-28T05:53:35.838Z,2.35
2023-02-28T05:56:20.985Z,2.33
2023-02-28T05:59:07.159Z,2.22
2023-02-28T06:01:54.181Z,2.50
2023-02-28T06:04:39.644Z,2.03
2023-02-28T06:07:25.069Z,2.35
2023-02-28T06:10:11.796Z,2.17
2023-02-28T06:13:01.961Z,2.28
2023-02-28T06:15:47.702Z,1.90
2023-02-28T06:18:32.918Z,2.00
2023-02-28T06:21:18.207Z,1.98
2023-02-28T06:24:04.498Z,2.00
2023-02-28T06:26:50.822Z,2.00
2023-02-28T06:29:37.075Z,2.00
2023-02-28T06:32:23.300Z,1.88
2023-02-28T06:35:08.781Z,2.10
2023-02-28T06:37:54.450Z,1.80
2023-02-28T06:40:39.761Z,5.00
2023-02-28T06:43:26.591Z,5.03
2023-02-28T06:46:15.006Z,4.85
2023-02-28T06:49:00.745Z,4.97
2023-02-28T06:51:46.286Z,4.45
2023-02-28T06:54:31.996Z,3.92
2023-02-28T06:57:17.200Z,4.10
2023-02-28T07:00:08.615Z,3.92
2023-02-28T07:02:56.015Z,4.07
2023-02-28T07:05:41.773Z,3.33
2023-02-28T07:08:27.829Z,3.50
2023-02-28T07:11:13.042Z,3.80
2023-02-28T07:13:58.736Z,3.63
2023-02-28T07:16:46.447Z,3.72
2023-02-28T07:19:31.678Z,3.83
2023-02-28T07:22:17.027Z,3.33
2023-02-28T07:25:02.506Z,3.70
2023-02-28T07:33:54.435Z,3.30
2023-02-28T07:36:39.529Z,3.38
2023-02-28T07:39:24.691Z,3.30
2023-02-28T07:42:12.722Z,2.85
2023-02-28T07:44:59.876Z,2.92
2023-02-28T07:47:45.505Z,3.38
2023-02-28T07:50:32.128Z,3.10
2023-02-28T07:53:17.624Z,3.10
2023-02-28T07:56:04.159Z,3.10
2023-02-28T07:58:49.501Z,3.10
2023-02-28T08:01:34.810Z,3.08
2023-02-28T08:04:20.594Z,3.10
2023-02-28T08:07:05.869Z,3.23
2023-02-28T08:09:51.194Z,3.13
2023-02-28T08:12:36.851Z,2.90
2023-02-28T08:15:21.992Z,3.20
2023-02-28T08:18:07.334Z,2.97
2023-02-28T08:20:52.661Z,3.17
2023-02-28T08:23:38.213Z,3.47
2023-02-28T08:26:23.547Z,3.00
2023-02-28T08:29:08.805Z,3.00
2023-02-28T08:31:54.339Z,2.78
2023-02-28T08:34:41.241Z,2.80
2023-02-28T08:37:26.668Z,2.92
2023-02-28T08:40:14.351Z,2.90
2023-02-28T08:43:00.595Z,3.10
2023-02-28T08:45:45.932Z,2.75
2023-02-28T08:48:33.839Z,2.40
2023-02-28T08:51:22.407Z,2.75
2023-02-28T08:54:09.956Z,2.80
2023-02-28T08:56:55.035Z,2.58
2023-02-28T08:59:40.272Z,2.60
2023-02-28T09:02:25.490Z,2.80
2023-02-28T09:05:10.679Z,2.55
2023-02-28T09:07:55.760Z,3.30
2023-02-28T09:10:41.367Z,2.60
2023-02-28T09:13:27.563Z,3.10
2023-02-28T09:16:15.198Z,2.73
2023-02-28T09:19:00.652Z,2.50
2023-02-28T09:21:46.077Z,2.80
2023-02-28T09:24:32.865Z,3.10
2023-02-28T09:27:18.375Z,2.90
2023-02-28T09:30:03.877Z,2.90
2023-02-28T09:32:53.107Z,3.05
2023-02-28T09:35:38.740Z,3.17
2023-02-28T09:38:24.329Z,2.53
2023-02-28T09:41:22.358Z,2.78
2023-02-28T09:44:14.015Z,2.60
2023-02-28T09:47:06.378Z,2.95
2023-02-28T09:49:52.395Z,2.60
2023-02-28T09:52:37.692Z,2.63
2023-02-28T09:55:46.508Z,2.60
2023-02-28T09:58:47.888Z,2.53
2023-02-28T10:01:43.001Z,2.65
2023-02-28T10:04:55.289Z,2.72
2023-02-28T10:07:46.312Z,2.67
2023-02-28T10:10:42.019Z,2.50
2023-02-28T10:13:51.509Z,2.50
2023-02-28T10:16:56.169Z,2.78
2023-02-28T10:19:48.565Z,2.42
2023-02-28T10:22:58.124Z,2.95
2023-02-28T10:25:49.021Z,2.38
2023-02-28T10:28:34.574Z,2.70
2023-02-28T10:31:20.546Z,2.20
2023-02-28T10:34:07.128Z,2.55
2023-02-28T10:36:52.560Z,2.20
2023-02-28T10:39:42.722Z,2.30
2023-02-28T10:42:30.095Z,2.17
2023-02-28T10:45:18.513Z,2.22
2023-02-28T10:48:15.742Z,2.35
2023-02-28T10:51:02.208Z,2.22
2023-02-28T10:54:02.867Z,2.67
2023-02-28T10:57:07.971Z,2.03
2023-02-28T11:00:06.703Z,2.00
2023-02-28T11:02:52.741Z,2.00
2023-02-28T11:05:38.209Z,2.30
2023-02-28T11:08:25.334Z,2.10
2023-02-28T11:11:10.891Z,2.57
2023-02-28T11:14:03.423Z,2.08
2023-02-28T11:16:50.860Z,2.28
2023-02-28T11:19:45.120Z,2.20
2023-02-28T11:22:33.999Z,2.05
2023-02-28T11:25:34.769Z,2.00
2023-02-28T11:28:39.161Z,2.28
2023-02-28T11:31:24.424Z,2.00
2023-02-28T11:34:28.487Z,2.17
2023-02-28T11:37:17.677Z,1.88
2023-02-28T11:40:06.723Z,1.97
2023-02-28T11:43:07.392Z,2.20
2023-02-28T11:46:32.299Z,2.10
2023-02-28T11:49:18.004Z,2.13
2023-02-28T11:52:36.590Z,2.15
2023-02-28T11:55:27.062Z,2.10
2023-02-28T11:58:27.003Z,2.20
2023-02-28T12:01:18.710Z,1.90
2023-02-28T12:04:18.709Z,1.90
2023-02-28T12:07:34.715Z,1.90
2023-02-28T12:10:24.812Z,1.70
2023-02-28T12:13:29.941Z,1.80
2023-02-28T12:16:16.250Z,1.90
2023-02-28T12:19:18.900Z,1.60
2023-02-28T12:22:30.424Z,1.77
2023-02-28T12:25:22.294Z,1.40
2023-02-28T12:28:12.693Z,2.05
2023-02-28T12:31:05.401Z,1.65
2023-02-28T12:33:57.900Z,1.88
2023-02-28T12:36:46.718Z,2.00
2023-02-28T12:39:49.761Z,1.50
2023-02-28T12:42:43.421Z,1.67
2023-02-28T12:45:39.538Z,1.83
2023-02-28T12:48:44.696Z,1.60
2023-02-28T12:51:30.366Z,1.83
2023-02-28T12:54:20.511Z,1.53
2023-02-28T12:57:27.902Z,1.50
2023-02-28T13:00:18.554Z,2.03
2023-02-28T13:03:25.318Z,1.73
2023-02-28T13:06:41.756Z,1.55
2023-02-28T13:09:30.529Z,1.50
2023-02-28T13:12:17.765Z,1.70
2023-02-28T13:15:25.887Z,1.52
2023-02-28T13:18:29.831Z,1.63
2023-02-28T13:21:28.658Z,1.48
2023-02-28T13:24:33.938Z,1.60
2023-02-28T13:27:27.566Z,1.50
2023-02-28T13:30:50.557Z,1.50
2023-02-28T13:33:51.001Z,1.50
2023-02-28T13:36:37.600Z,1.50
2023-02-28T13:39:36.254Z,1.50
2023-02-28T13:42:40.748Z,1.63
2023-02-28T13:45:27.715Z,1.60
2023-02-28T13:48:24.751Z,1.50
2023-02-28T13:51:53.138Z,1.40
2023-02-28T13:55:09.594Z,1.50
2023-02-28T13:58:13.780Z,1.45
2023-02-28T14:01:25.102Z,1.70
2023-02-28T14:04:14.792Z,1.50
2023-02-28T14:07:00.937Z,1.98
2023-02-28T14:09:55.260Z,1.50
2023-02-28T14:13:03.085Z,1.52
2023-02-28T14:16:00.644Z,1.33
2023-02-28T14:18:56.189Z,1.45
2023-02-28T14:22:08.919Z,1.40
2023-02-28T14:25:12.564Z,1.53
2023-02-28T14:28:16.709Z,1.50
2023-02-28T14:31:30.780Z,1.48
2023-02-28T14:34:25.126Z,1.60
2023-02-28T14:37:17.646Z,1.50
2023-02-28T14:40:05.410Z,1.30
2023-02-28T14:43:21.608Z,1.63
2023-02-28T14:46:07.598Z,1.30
2023-02-28T14:48:52.869Z,1.50
2023-02-28T14:51:38.350Z,1.58
2023-02-28T14:54:24.915Z,1.40
2023-02-28T14:57:24.151Z,1.52
2023-02-28T15:00:22.250Z,1.30
2023-02-28T15:03:20.584Z,1.50
2023-02-28T15:06:13.796Z,1.30
2023-02-28T15:09:19.659Z,1.60
2023-02-28T15:12:05.089Z,1.40
2023-02-28T15:14:52.195Z,1.40
2023-02-28T15:17:37.594Z,1.50
2023-02-28T15:20:24.592Z,1.55
2023-02-28T15:23:11.523Z,1.50
2023-02-28T15:25:57.893Z,1.20
2023-02-28T15:28:44.868Z,1.30
2023-02-28T15:31:43.947Z,1.40
2023-02-28T15:34:44.730Z,1.38
2023-02-28T15:37:33.452Z,1.30
2023-02-28T15:40:30.961Z,1.30
2023-02-28T15:43:31.262Z,1.20
2023-02-28T15:46:16.932Z,1.17
2023-02-28T15:49:02.258Z,1.50
2023-02-28T15:51:51.425Z,1.20
2023-02-28T15:54:37.316Z,1.20
2023-02-28T15:57:28.940Z,1.45
2023-02-28T16:00:17.602Z,1.67
2023-02-28T16:03:26.978Z,1.63
2023-02-28T16:06:38.094Z,3.27
2023-02-28T16:09:23.361Z,4.60
2023-02-28T16:12:14.296Z,6.82
2023-02-28T16:15:03.861Z,5.85
2023-02-28T16:17:49.917Z,6.30
2023-02-28T16:20:35.061Z,5.93
2023-02-28T16:23:20.555Z,6.03
2023-02-28T16:26:07.612Z,5.38
2023-02-28T16:28:53.400Z,5.70
2023-02-28T16:31:39.217Z,5.70
2023-02-28T16:34:25.284Z,6.23
2023-02-28T16:37:16.630Z,7.00
2023-02-28T16:40:01.879Z,7.93
2023-02-28T16:42:49.494Z,8.32
2023-02-28T16:45:35.104Z,7.60
2023-02-28T16:48:20.743Z,7.37
2023-02-28T16:51:06.229Z,7.40
2023-02-28T16:53:51.473Z,8.68
2023-02-28T16:56:44.901Z,9.80
2023-02-28T16:59:30.776Z,9.32
2023-02-28T17:02:20.434Z,10.07
2023-02-28T17:05:07.428Z,9.93
2023-02-28T17:07:52.640Z,8.43
2023-02-28T17:10:38.013Z,8.43
2023-02-28T17:13:23.263Z,9.55
2023-02-28T17:16:30.411Z,8.67
2023-02-28T17:19:20.731Z,8.75
2023-02-28T17:22:05.937Z,9.20
2023-02-28T17:24:51.265Z,8.70
2023-02-28T17:27:36.886Z,8.88
2023-02-28T17:30:28.115Z,8.73
2023-02-28T17:33:13.271Z,8.57
2023-02-28T17:35:58.650Z,8.38
2023-02-28T17:38:43.991Z,7.90
2023-02-28T17:41:31.324Z,7.40
2023-02-28T17:44:17.887Z,8.47
2023-02-28T17:47:03.480Z,8.35
2023-02-28T17:49:48.728Z,7.90
2023-02-28T17:52:37.812Z,8.07
2023-02-28T17:55:22.968Z,8.07
2023-02-28T17:58:11.609Z,8.17
2023-02-28T18:00:57.402Z,7.28
2023-02-28T18:03:43.266Z,7.20
2023-02-28T18:06:48.667Z,7.43
2023-02-28T18:09:34.228Z,7.00
2023-02-28T18:12:19.491Z,7.27
2023-02-28T18:15:05.087Z,6.97
2023-02-28T18:17:51.186Z,6.90
2023-02-28T18:20:37.563Z,5.25
2023-02-28T18:23:23.538Z,4.50
2023-02-28T18:26:09.078Z,4.47
2023-02-28T18:28:54.430Z,4.57
2023-02-28T18:31:40.038Z,4.20
2023-02-28T18:34:26.194Z,4.68
2023-02-28T18:37:11.994Z,4.57
2023-02-28T18:39:57.023Z,4.80
2023-02-28T18:42:42.251Z,4.35
2023-02-28T18:45:27.990Z,4.47
2023-02-28T18:48:14.982Z,4.30
2023-02-28T18:51:06.693Z,4.00
2023-02-28T18:53:52.594Z,4.33
2023-02-28T18:56:38.013Z,4.35
2023-02-28T18:59:16.984Z,4.25
2023-02-28T19:02:02.722Z,3.88
2023-02-28T19:04:48.115Z,4.32
2023-02-28T19:07:35.323Z,4.23
2023-02-28T19:10:20.798Z,4.20
2023-02-28T19:13:06.632Z,4.53
2023-02-28T19:16:01.356Z,3.67
2023-02-28T19:18:46.584Z,4.15
2023-02-28T19:21:31.825Z,4.30
2023-02-28T19:24:18.847Z,3.85
2023-02-28T19:27:04.745Z,3.72
2023-02-28T19:29:51.648Z,3.67
2023-02-28T19:32:37.152Z,4.00
2023-02-28T19:35:22.905Z,3.70
2023-02-28T19:38:09.254Z,4.00
2023-02-28T19:41:06.863Z,3.70
2023-02-28T19:43:53.143Z,3.70
2023-02-28T19:46:38.569Z,3.50
2023-02-28T19:49:25.936Z,3.70
2023-02-28T19:52:13.594Z,3.28
2023-02-28T19:55:00.948Z,3.40
2023-02-28T19:57:46.477Z,3.80
2023-02-28T20:00:31.483Z,3.92
2023-02-28T20:03:18.441Z,3.57
2023-02-28T20:06:09.877Z,3.47
2023-02-28T20:08:55.086Z,3.70
2023-02-28T20:11:40.738Z,3.55
2023-02-28T20:14:26.769Z,3.10
2023-02-28T20:17:11.914Z,3.73
2023-02-28T20:19:57.230Z,3.50
2023-02-28T20:22:42.365Z,3.35
2023-02-28T20:25:27.784Z,3.75
2023-02-28T20:28:12.861Z,3.35
2023-02-28T20:30:58.289Z,3.53
2023-02-28T20:33:46.829Z,3.20
2023-02-28T20:36:33.036Z,3.58
2023-02-28T20:39:18.229Z,3.30
2023-02-28T20:42:03.835Z,3.90
2023-02-28T20:44:48.917Z,3.73
2023-02-28T20:47:34.162Z,3.55
2023-02-28T20:50:19.971Z,3.30
2023-02-28T20:53:05.346Z,3.38
2023-02-28T20:56:01.715Z,4.00
2023-02-28T20:58:48.940Z,3.30
2023-02-28T21:01:34.652Z,3.42
2023-02-28T21:04:19.801Z,3.70
2023-02-28T21:07:05.154Z,3.80
2023-02-28T21:09:50.462Z,3.42
2023-02-28T21:12:35.561Z,3.70
2023-02-28T21:15:22.807Z,3.28
2023-02-28T21:18:08.097Z,3.13
2023-02-28T21:20:53.542Z,3.42
2023-02-28T21:23:38.673Z,3.30
2023-02-28T21:26:24.538Z,3.00
2023-02-28T21:29:11.226Z,3.30
2023-02-28T21:31:56.796Z,3.17
2023-02-28T21:34:42.116Z,2.90
2023-02-28T21:37:27.298Z,3.30
2023-02-28T21:40:13.111Z,3.10
2023-02-28T21:42:58.320Z,2.95
2023-02-28T21:45:43.567Z,3.15
2023-02-28T21:48:30.244Z,2.85
2023-02-28T21:51:17.825Z,3.20
2023-02-28T21:54:04.007Z,3.17
2023-02-28T21:56:52.098Z,3.10
2023-02-28T21:59:37.562Z,2.90
2023-02-28T22:02:22.848Z,3.08
2023-02-28T22:05:08.630Z,3.03
2023-02-28T22:07:53.799Z,2.90
2023-02-28T22:10:39.277Z,3.15
2023-02-28T22:13:24.582Z,3.53
2023-02-28T22:16:13.242Z,3.10
2023-02-28T22:18:59.095Z,2.92
2023-02-28T22:21:45.723Z,3.20
2023-02-28T22:24:30.997Z,2.78
2023-02-28T22:27:16.417Z,3.10
2023-02-28T22:30:01.557Z,3.38
2023-02-28T22:32:47.049Z,3.60
2023-02-28T22:35:32.329Z,3.77
2023-02-28T22:38:17.778Z,3.65
2023-02-28T22:41:05.112Z,3.53
2023-02-28T22:43:53.937Z,3.60
2023-02-28T22:46:38.992Z,4.50
2023-02-28T22:49:25.087Z,3.60
2023-02-28T22:52:10.228Z,3.70
2023-02-28T22:54:55.770Z,4.03
2023-02-28T22:57:41.074Z,3.42
2023-02-28T23:00:26.357Z,3.95
2023-02-28T23:03:11.832Z,3.53
2023-02-28T23:05:57.161Z,3.45
2023-02-28T23:08:43.312Z,3.40
2023-02-28T23:11:34.498Z,3.45
2023-02-28T23:14:21.313Z,3.40
2023-02-28T23:17:06.867Z,3.53
2023-02-28T23:19:52.359Z,3.15
2023-02-28T23:22:37.599Z,3.65
2023-02-28T23:25:22.839Z,3.22
2023-02-28T23:28:10.211Z,4.20
2023-02-28T23:30:55.564Z,4.23
2023-02-28T23:33:40.886Z,3.92
2023-02-28T23:36:26.130Z,3.65
2023-02-28T23:39:12.280Z,3.90
2023-02-28T23:41:58.510Z,4.20
2023-02-28T23:44:44.017Z,3.90
2023-02-28T23:47:30.917Z,3.63
2023-02-28T23:50:16.477Z,3.70
2023-02-28T23:53:01.502Z,4.55
2023-02-28T23:55:48.563Z,3.80
2023-02-28T23:58:33.737Z,4.10
